Time;durP1;ratioP1;P1;durP2;ratioP2;P2;SDS_P1;SDS_P2;PMS_P1;PMS_P2;Temp;Humidity;BMP_temperature;BMP_pressure;BME280_temperature;BME280_humidity;BME280_pressure;Samples;Min_cycle;Max_cycle;Signal;HPM_P1;HPM_P2
2020/12/16 00:00:35;;;;;;;59.85;30.37;;;;;;;1.35;89.72;101256.40;1806291;79;22051;-68
2020/12/16 00:03:04;;;;;;;53.08;29.07;;;;;;;1.34;89.82;101260.67;1806100;79;20890;-68
2020/12/16 00:05:32;;;;;;;64.15;32.93;;;;;;;1.38;89.79;101264.53;1813772;77;21360;-68
2020/12/16 00:08:00;;;;;;;64.90;34.95;;;;;;;1.38;89.69;101263.24;1821943;78;20929;-68
2020/12/16 00:10:28;;;;;;;60.58;32.73;;;;;;;1.39;89.65;101263.25;1822011;78;21530;-68
2020/12/16 00:12:57;;;;;;;56.45;30.62;;;;;;;1.37;89.63;101263.67;1821913;78;21182;-68
2020/12/16 00:15:26;;;;;;;51.35;28.02;;;;;;;1.38;89.70;101265.38;1822028;78;21483;-68
2020/12/16 00:17:54;;;;;;;54.15;29.07;;;;;;;1.40;89.59;101267.95;1822187;78;20882;-68
2020/12/16 00:20:22;;;;;;;54.60;29.12;;;;;;;1.40;89.60;101269.23;1822089;78;21466;-68
2020/12/16 00:22:51;;;;;;;46.23;25.85;;;;;;;1.39;89.52;101267.52;1822105;78;20988;-68
2020/12/16 00:25:19;;;;;;;49.08;27.05;;;;;;;1.37;89.55;101259.82;1822171;78;22026;-68
2020/12/16 00:27:47;;;;;;;47.35;25.43;;;;;;;1.38;89.56;101261.96;1821993;78;21000;-68
2020/12/16 00:30:16;;;;;;;46.85;25.45;;;;;;;1.39;89.55;101264.53;1822087;78;20968;-68
2020/12/16 00:32:44;;;;;;;45.20;25.68;;;;;;;1.41;89.47;101264.53;1822093;78;20920;-68
2020/12/16 00:35:13;;;;;;;43.90;24.50;;;;;;;1.40;89.32;101264.10;1822128;78;21589;-68
2020/12/16 00:37:42;;;;;;;44.90;24.65;;;;;;;1.39;89.41;101259.83;1822154;78;22207;-68
2020/12/16 00:40:14;;;;;;;47.80;25.95;;;;;;;1.39;89.35;101261.97;1822012;78;20945;-68
2020/12/16 00:42:49;;;;;;;43.83;25.77;;;;;;;1.38;89.25;101261.53;1822122;78;21339;-68
2020/12/16 00:45:17;;;;;;;43.25;23.95;;;;;;;1.39;89.34;101266.23;1822076;78;20969;-68
2020/12/16 00:47:45;;;;;;;43.95;25.50;;;;;;;1.39;89.21;101259.83;1822145;78;20920;-68
2020/12/16 00:50:14;;;;;;;43.95;24.85;;;;;;;1.38;89.27;101260.25;1822055;78;21114;-68
2020/12/16 00:52:45;;;;;;;43.08;25.10;;;;;;;1.41;89.28;101264.53;1821788;78;21513;-68
2020/12/16 00:55:13;;;;;;;41.00;23.77;;;;;;;1.42;89.21;101259.83;1794706;78;20889;-68
2020/12/16 00:57:42;;;;;;;41.40;23.30;;;;;;;1.44;89.14;101264.54;1822086;78;21470;-68
2020/12/16 01:00:10;;;;;;;44.20;24.52;;;;;;;1.45;89.03;101258.55;1822185;78;20996;-68
2020/12/16 01:02:41;;;;;;;45.45;25.40;;;;;;;1.43;88.91;101259.83;1822108;78;22252;-68
2020/12/16 01:05:14;;;;;;;45.98;24.30;;;;;;;1.42;88.89;101257.27;1821949;78;20972;-68
2020/12/16 01:07:44;;;;;;;45.00;24.60;;;;;;;1.42;88.91;101255.98;1822102;78;20913;-69
2020/12/16 01:10:14;;;;;;;41.83;23.80;;;;;;;1.43;88.96;101255.98;1821985;78;20865;-69
2020/12/16 01:12:43;;;;;;;46.83;24.50;;;;;;;1.44;88.81;101251.70;1822089;78;20921;-72
2020/12/16 01:15:21;;;;;;;49.50;26.73;;;;;;;1.42;88.77;101247.86;1821995;78;21182;-68
2020/12/16 01:17:51;;;;;;;42.75;24.05;;;;;;;1.41;88.76;101251.70;1821899;78;20944;-68
2020/12/16 01:20:22;;;;;;;44.20;25.08;;;;;;;1.41;89.02;101241.44;1821067;78;20925;-68
2020/12/16 01:22:52;;;;;;;44.85;23.90;;;;;;;1.44;89.06;101245.29;1794401;78;20901;-68
2020/12/16 01:25:21;;;;;;;40.43;23.80;;;;;;;1.46;88.96;101238.45;1822074;78;21332;-68
2020/12/16 01:27:56;;;;;;;40.38;23.20;;;;;;;1.47;88.90;101244.86;1822001;78;21177;-68
2020/12/16 01:30:24;;;;;;;39.10;21.40;;;;;;;1.49;88.79;101244.44;1822096;78;20925;-67
2020/12/16 01:32:54;;;;;;;33.33;19.25;;;;;;;1.50;88.65;101246.58;1822078;78;20921;-67
2020/12/16 01:35:24;;;;;;;26.27;17.30;;;;;;;1.49;88.33;101249.58;1822016;78;20945;-67
2020/12/16 01:37:55;;;;;;;32.98;18.90;;;;;;;1.47;88.25;101241.44;1794599;78;20942;-67
2020/12/16 01:40:27;;;;;;;30.35;19.45;;;;;;;1.47;88.12;101242.73;1821959;78;22042;-68
2020/12/16 01:42:56;;;;;;;36.00;20.08;;;;;;;1.45;88.14;101231.61;1821997;78;21669;-68
2020/12/16 01:45:24;;;;;;;32.88;20.90;;;;;;;1.45;88.19;101238.02;1822045;78;20924;-68
2020/12/16 01:47:53;;;;;;;38.50;21.60;;;;;;;1.45;88.17;101239.30;1821992;78;20913;-68
2020/12/16 01:50:22;;;;;;;32.58;19.95;;;;;;;1.45;88.15;101237.59;1822014;78;20873;-68
2020/12/16 01:52:50;;;;;;;31.37;19.45;;;;;;;1.45;88.14;101238.02;1795025;78;21181;-68
2020/12/16 01:55:21;;;;;;;31.60;19.30;;;;;;;1.46;88.17;101232.89;1821133;78;21502;-68
2020/12/16 01:57:51;;;;;;;31.00;19.70;;;;;;;1.47;88.07;101233.31;1820477;78;21050;-68
2020/12/16 02:00:21;;;;;;;31.52;20.00;;;;;;;1.48;88.06;101231.17;1821962;78;20882;-68
2020/12/16 02:02:51;;;;;;;30.23;19.25;;;;;;;1.47;87.93;101224.33;1822047;78;20909;-68
2020/12/16 02:05:39;;;;;;;26.05;16.70;;;;;;;1.45;87.89;101227.33;1822031;77;21321;-68
2020/12/16 02:08:09;;;;;;;13.05;9.60;;;;;;;1.41;87.62;101219.63;1822085;78;21549;-68
2020/12/16 02:10:40;;;;;;;12.58;9.58;;;;;;;1.39;87.25;101218.34;1822024;78;21394;-68
2020/12/16 02:13:08;;;;;;;19.40;14.05;;;;;;;1.39;86.95;101223.47;1822026;78;21534;-68
2020/12/16 02:15:38;;;;;;;13.10;9.70;;;;;;;1.38;86.85;101220.48;1821784;78;21003;-68
2020/12/16 02:18:08;;;;;;;10.93;8.68;;;;;;;1.37;86.37;101223.89;1822097;78;22055;-68
2020/12/16 02:20:37;;;;;;;11.45;8.98;;;;;;;1.34;85.97;101219.61;1821772;78;21541;-68
2020/12/16 02:23:08;;;;;;;17.35;11.43;;;;;;;1.34;85.89;101218.33;1821710;78;21036;-68
2020/12/16 02:25:39;;;;;;;16.65;12.10;;;;;;;1.37;85.87;101218.77;1822072;78;21414;-68
2020/12/16 02:28:08;;;;;;;18.02;13.65;;;;;;;1.38;85.87;101216.63;1822044;78;21493;-69
2020/12/16 02:30:39;;;;;;;19.45;14.60;;;;;;;1.38;86.05;101219.62;1821821;78;22195;-69
2020/12/16 02:33:27;;;;;;;22.02;15.15;;;;;;;1.40;86.28;101221.76;1820797;78;21482;-69
2020/12/16 02:36:00;;;;;;;18.77;14.20;;;;;;;1.38;86.48;101216.63;1820722;78;20992;-69
2020/12/16 02:38:37;;;;;;;20.23;14.43;;;;;;;1.40;86.49;101214.06;1817907;78;20968;-68
2020/12/16 02:41:05;;;;;;;17.48;13.83;;;;;;;1.41;86.40;101211.92;1795127;78;21501;-68
2020/12/16 02:43:34;;;;;;;17.75;13.78;;;;;;;1.41;86.31;101214.06;1821890;78;21639;-68
2020/12/16 02:46:02;;;;;;;21.73;15.00;;;;;;;1.41;86.28;101214.06;1821936;78;20921;-69
2020/12/16 02:48:30;;;;;;;19.70;14.95;;;;;;;1.40;86.37;101212.35;1821961;78;20917;-69
2020/12/16 02:51:00;;;;;;;20.25;14.60;;;;;;;1.39;86.46;101217.05;1821940;78;20976;-68
2020/12/16 02:53:29;;;;;;;23.73;15.93;;;;;;;1.39;86.61;101214.48;1821972;78;20992;-68
2020/12/16 02:56:16;;;;;;;21.10;15.03;;;;;;;1.41;86.72;101214.49;1822264;78;21353;-68
2020/12/16 02:58:46;;;;;;;17.85;14.25;;;;;;;1.43;86.50;101214.92;1820529;78;20973;-68
2020/12/16 03:01:15;;;;;;;19.42;15.03;;;;;;;1.43;86.43;101217.48;1822005;78;20925;-68
2020/12/16 03:04:00;;;;;;;20.37;14.80;;;;;;;1.42;86.42;101213.64;1820322;78;21046;-68
2020/12/16 03:06:30;;;;;;;17.37;13.48;;;;;;;1.39;86.40;101217.05;1811457;78;21407;-68
2020/12/16 03:09:00;;;;;;;19.10;14.25;;;;;;;1.37;86.62;101213.63;1805672;79;22191;-68
2020/12/16 03:11:31;;;;;;;18.67;13.83;;;;;;;1.37;86.76;101216.63;1806126;79;20894;-68
2020/12/16 03:14:00;;;;;;;18.30;14.25;;;;;;;1.37;86.83;101215.34;1806212;79;20942;-68
2020/12/16 03:16:29;;;;;;;17.30;13.15;;;;;;;1.37;86.76;101212.34;1806202;79;20961;-68
2020/12/16 03:19:01;;;;;;;20.50;15.43;;;;;;;1.39;86.69;101216.20;1804720;79;20920;-69
2020/12/16 03:21:30;;;;;;;18.17;14.00;;;;;;;1.39;86.72;101212.35;1783655;79;21175;-68
2020/12/16 03:24:00;;;;;;;19.20;14.47;;;;;;;1.39;86.71;101212.35;1802974;79;20942;-68
2020/12/16 03:26:33;;;;;;;15.35;12.82;;;;;;;1.43;86.63;101207.65;1802866;79;21013;-68
2020/12/16 03:29:03;;;;;;;18.12;14.15;;;;;;;1.43;86.38;101199.52;1804287;79;20910;-68
2020/12/16 03:31:36;;;;;;;15.45;11.85;;;;;;;1.45;86.13;101199.09;1802918;79;20957;-68
2020/12/16 03:34:25;;;;;;;13.75;10.53;;;;;;;1.46;85.86;101196.09;1802878;79;21186;-68
2020/12/16 03:36:58;;;;;;;19.10;14.25;;;;;;;1.45;85.58;101195.67;1805479;79;20981;-68
2020/12/16 03:39:27;;;;;;;20.57;14.07;;;;;;;1.45;85.58;101193.96;1806167;79;20977;-68
2020/12/16 03:41:56;;;;;;;23.85;17.00;;;;;;;1.45;85.57;101185.41;1806162;79;20902;-68
2020/12/16 03:44:25;;;;;;;22.98;17.40;;;;;;;1.44;85.65;101192.25;1806143;79;20926;-69
2020/12/16 03:46:59;;;;;;;26.37;19.42;;;;;;;1.43;85.73;101192.25;1806220;79;21375;-69
2020/12/16 03:49:28;;;;;;;29.55;20.52;;;;;;;1.42;85.79;101184.98;1806134;79;21008;-69
2020/12/16 03:51:57;;;;;;;27.15;17.85;;;;;;;1.41;85.84;101188.40;1806201;79;21024;-68
2020/12/16 03:54:29;;;;;;;18.12;13.43;;;;;;;1.41;85.82;101184.98;1804966;79;20985;-68
2020/12/16 03:57:15;;;;;;;32.50;20.85;;;;;;;1.39;85.30;101186.69;1806333;79;21454;-68
2020/12/16 04:00:03;;;;;;;35.70;23.90;;;;;;;1.37;85.06;101185.83;1806347;79;21250;-68
2020/12/16 04:02:44;;;;;;;19.80;15.28;;;;;;;1.33;84.91;101181.98;1805910;79;37449;-67
2020/12/16 04:05:26;;;;;;;17.15;11.68;;;;;;;1.31;84.85;101175.99;1804808;79;21001;-67
2020/12/16 04:07:55;;;;;;;25.80;18.02;;;;;;;1.28;84.47;101178.98;1820417;78;20926;-68
2020/12/16 04:10:31;;;;;;;25.45;18.20;;;;;;;1.28;84.58;101178.98;1797587;78;20909;-68
2020/12/16 04:13:00;;;;;;;26.77;19.27;;;;;;;1.26;84.51;101173.84;1822049;78;21351;-68
2020/12/16 04:15:28;;;;;;;31.87;21.45;;;;;;;1.26;84.48;101187.97;1794515;78;20944;-68
2020/12/16 04:17:56;;;;;;;21.57;16.23;;;;;;;1.26;84.66;101187.11;1821934;78;21150;-68
2020/12/16 04:20:27;;;;;;;21.05;16.10;;;;;;;1.26;84.74;101202.50;1821863;78;20936;-69
2020/12/16 04:22:57;;;;;;;24.67;18.73;;;;;;;1.27;84.73;101203.78;1821631;78;20977;-68
2020/12/16 04:25:25;;;;;;;45.10;31.10;;;;;;;1.28;84.89;101204.22;1821870;78;21177;-69
2020/12/16 04:27:53;;;;;;;43.38;30.95;;;;;;;1.30;84.87;101207.64;1821880;78;20925;-68
2020/12/16 04:30:23;;;;;;;34.03;23.98;;;;;;;1.30;84.85;101207.64;1821870;78;20886;-69
2020/12/16 04:32:56;;;;;;;26.65;20.72;;;;;;;1.32;85.10;101209.78;1821378;78;20981;-69
2020/12/16 04:35:24;;;;;;;25.62;18.27;;;;;;;1.34;85.24;101215.77;1822115;78;21351;-69
2020/12/16 04:37:53;;;;;;;26.75;18.95;;;;;;;1.38;85.48;101215.34;1821925;78;21173;-69
2020/12/16 04:40:24;;;;;;;28.25;19.95;;;;;;;1.42;85.52;101220.05;1794623;78;21486;-69
2020/12/16 04:43:09;;;;;;;50.98;27.20;;;;;;;1.45;85.27;101222.63;1821944;78;20921;-69
2020/12/16 04:45:39;;;;;;;66.40;32.55;;;;;;;1.46;85.18;101224.33;1821949;78;21435;-68
2020/12/16 04:48:08;;;;;;;48.42;27.58;;;;;;;1.47;85.10;101226.05;1821942;78;21003;-69
2020/12/16 04:50:37;;;;;;;37.53;24.07;;;;;;;1.47;84.99;101228.18;1821977;78;21257;-69
2020/12/16 04:53:09;;;;;;;30.65;21.68;;;;;;;1.47;84.99;101224.76;1821853;78;20929;-69
2020/12/16 04:55:41;;;;;;;27.55;20.92;;;;;;;1.47;84.85;101231.17;1821294;78;21570;-68
2020/12/16 04:58:11;;;;;;;33.88;23.10;;;;;;;1.46;84.67;101232.89;1791272;78;21052;-69
2020/12/16 05:00:41;;;;;;;42.88;26.37;;;;;;;1.45;84.53;101240.16;1821924;78;21554;-68
2020/12/16 05:03:11;;;;;;;39.40;26.35;;;;;;;1.46;84.51;101242.30;1820993;78;21418;-68
2020/12/16 05:05:53;;;;;;;27.52;19.57;;;;;;;1.45;84.60;101239.30;1820434;78;21487;-68
2020/12/16 05:08:23;;;;;;;28.17;19.82;;;;;;;1.46;84.87;101248.72;1822058;78;21474;-68
2020/12/16 05:10:51;;;;;;;30.20;21.68;;;;;;;1.45;84.98;101251.70;1822021;78;21343;-69
2020/12/16 05:13:21;;;;;;;28.05;20.45;;;;;;;1.47;84.89;101246.58;1822129;78;21533;-68
2020/12/16 05:15:49;;;;;;;27.67;20.08;;;;;;;1.47;84.87;101247.44;1822122;78;22056;-68
2020/12/16 05:18:27;;;;;;;34.45;22.22;;;;;;;1.47;84.75;101239.73;1822009;78;20976;-68
2020/12/16 05:20:58;;;;;;;33.85;22.65;;;;;;;1.49;84.75;101246.15;1822144;78;21574;-68
2020/12/16 05:23:35;;;;;;;32.03;22.60;;;;;;;1.48;84.75;101244.02;1822015;78;21063;-68
2020/12/16 05:26:09;;;;;;;32.53;22.02;;;;;;;1.47;85.11;101238.45;1822172;78;21339;-67
2020/12/16 05:28:39;;;;;;;22.58;18.82;;;;;;;1.48;85.36;101241.45;1822130;78;22007;-68
2020/12/16 05:31:10;;;;;;;28.45;19.27;;;;;;;1.49;85.49;101247.01;1821969;78;20968;-68
2020/12/16 05:33:49;;;;;;;30.25;20.40;;;;;;;1.51;85.55;101250.43;1822091;78;20972;-68
2020/12/16 05:36:30;;;;;;;22.48;17.52;;;;;;;1.54;85.67;101248.30;1822035;78;21008;-68
2020/12/16 05:38:59;;;;;;;23.52;18.02;;;;;;;1.56;85.71;101250.44;1822187;78;21569;-68
2020/12/16 05:41:33;;;;;;;26.02;19.45;;;;;;;1.60;85.63;101249.58;1821986;78;21248;-68
2020/12/16 05:44:21;;;;;;;23.47;17.32;;;;;;;1.65;85.25;101247.84;1822065;78;21522;-70
2020/12/16 05:46:50;;;;;;;24.30;17.45;;;;;;;1.65;84.92;101242.70;1821991;78;20984;-68
2020/12/16 05:49:30;;;;;;;25.10;18.87;;;;;;;1.65;84.63;101246.56;1830802;77;20979;-68
2020/12/16 05:52:03;;;;;;;30.17;20.57;;;;;;;1.62;84.62;101247.41;1844137;77;20924;-68
2020/12/16 05:54:34;;;;;;;28.50;20.30;;;;;;;1.61;85.00;101248.70;1843765;77;21208;-68
2020/12/16 05:57:24;;;;;;;29.12;21.77;;;;;;;1.60;85.01;101245.27;1844270;77;21493;-67
2020/12/16 06:00:14;;;;;;;37.45;27.22;;;;;;;1.62;84.93;101253.83;1844193;77;20995;-68
2020/12/16 06:02:44;;;;;;;27.20;20.60;;;;;;;1.64;84.96;101260.25;1844130;77;20924;-69
2020/12/16 06:05:14;;;;;;;22.77;17.75;;;;;;;1.65;85.04;101254.26;1837430;77;21026;-69
2020/12/16 06:07:47;;;;;;;24.57;19.10;;;;;;;1.67;84.87;101256.40;1828049;76;21249;-69
2020/12/16 06:10:17;;;;;;;21.10;16.52;;;;;;;1.67;84.62;101255.97;1819563;77;21064;-70
2020/12/16 06:12:46;;;;;;;18.32;16.05;;;;;;;1.68;84.39;101264.53;1821536;77;21603;-69
2020/12/16 06:15:15;;;;;;;23.60;16.87;;;;;;;1.68;84.01;101269.23;1806938;78;21818;-67
2020/12/16 06:17:48;;;;;;;19.40;15.98;;;;;;;1.68;83.77;101278.66;1801662;77;20970;-67
2020/12/16 06:20:18;;;;;;;18.50;15.90;;;;;;;1.65;83.60;101267.09;1816161;77;22088;-66
2020/12/16 06:22:49;;;;;;;22.58;17.10;;;;;;;1.63;83.49;101266.23;1812610;77;21006;-66
2020/12/16 06:25:18;;;;;;;19.87;15.98;;;;;;;1.62;83.38;101267.09;1811096;78;21066;-67
2020/12/16 06:27:49;;;;;;;17.82;15.85;;;;;;;1.59;83.34;101276.11;1805711;78;21042;-69
2020/12/16 06:30:28;;;;;;;17.62;15.78;;;;;;;1.58;83.28;101273.11;1806444;78;20994;-67
2020/12/16 06:33:29;;;;;;;20.55;16.30;;;;;;;1.55;83.25;101268.83;1812356;78;22054;-74
2020/12/16 06:36:10;;;;;;;15.68;13.83;;;;;;;1.54;83.33;101268.83;1815870;77;21093;-73
2020/12/16 06:38:48;;;;;;;16.77;14.15;;;;;;;1.51;83.10;101272.67;1811067;78;21437;-65
2020/12/16 06:41:25;;;;;;;16.85;13.90;;;;;;;1.49;83.13;101265.41;1810718;78;21639;-67
2020/12/16 06:43:58;;;;;;;17.20;14.33;;;;;;;1.48;83.11;101277.37;1806917;77;21034;-72
2020/12/16 06:46:40;;;;;;;17.90;14.20;;;;;;;1.47;83.29;101276.09;1811593;77;21456;-68
2020/12/16 06:49:11;;;;;;;15.98;14.28;;;;;;;1.47;83.32;101270.96;1806365;78;20989;-67
2020/12/16 06:51:42;;;;;;;17.70;14.43;;;;;;;1.44;83.37;101269.24;1795968;77;21052;-68
2020/12/16 06:54:15;;;;;;;14.30;12.80;;;;;;;1.41;83.44;101268.38;1805483;77;21021;-71
2020/12/16 06:56:45;;;;;;;17.42;14.83;;;;;;;1.38;83.22;101269.23;1814211;78;21710;-66
2020/12/16 06:59:14;;;;;;;29.67;19.77;;;;;;;1.35;83.24;101269.23;1794879;78;21228;-70
2020/12/16 07:01:43;;;;;;;19.40;15.78;;;;;;;1.34;83.51;101268.80;1801879;78;21331;-69
2020/12/16 07:04:12;;;;;;;18.48;15.78;;;;;;;1.33;83.40;101274.36;1783053;78;21129;-69
2020/12/16 07:06:43;;;;;;;20.05;16.40;;;;;;;1.31;83.48;101274.78;1817457;77;21018;-69
2020/12/16 07:09:21;;;;;;;20.65;17.05;;;;;;;1.33;83.47;101274.36;1782379;78;21029;-73
2020/12/16 07:11:51;;;;;;;17.45;15.55;;;;;;;1.35;83.40;101273.08;1780768;78;21201;-70
2020/12/16 07:14:22;;;;;;;23.95;19.60;;;;;;;1.37;83.38;101265.38;1777613;78;21000;-68
2020/12/16 07:16:51;;;;;;;25.35;18.85;;;;;;;1.39;83.36;101270.09;1811000;78;21013;-69
2020/12/16 07:19:28;;;;;;;28.30;21.95;;;;;;;1.38;83.17;101276.93;1775780;78;21020;-68
2020/12/16 07:21:57;;;;;;;24.37;18.82;;;;;;;1.38;83.29;101269.66;1771899;80;21039;-70
2020/12/16 07:24:25;;;;;;;20.30;17.45;;;;;;;1.38;83.14;101272.23;1806222;78;21230;-71
2020/12/16 07:26:55;;;;;;;18.80;16.85;;;;;;;1.37;83.15;101272.66;1801914;77;21070;-71
2020/12/16 07:29:30;;;;;;;18.37;16.10;;;;;;;1.36;82.99;101275.22;1809190;78;21553;-69
2020/12/16 07:32:12;;;;;;;17.03;15.30;;;;;;;1.34;83.08;101274.78;1796180;78;20991;-68
2020/12/16 07:34:55;;;;;;;17.02;15.25;;;;;;;1.34;83.04;101267.09;1799375;78;21065;-73
2020/12/16 07:37:31;;;;;;;18.60;15.35;;;;;;;1.36;82.88;101270.94;1818067;78;21193;-70
2020/12/16 07:40:14;;;;;;;17.92;16.02;;;;;;;1.36;82.81;101268.80;1819710;77;21651;-75
2020/12/16 07:42:45;;;;;;;17.30;15.50;;;;;;;1.34;82.84;101266.23;1803778;77;20927;-72
2020/12/16 07:45:14;;;;;;;20.02;16.25;;;;;;;1.33;82.76;101267.09;1782691;78;20902;-66
2020/12/16 07:47:42;;;;;;;19.70;16.50;;;;;;;1.34;82.87;101274.78;1707174;81;21078;-70
2020/12/16 07:50:13;;;;;;;20.00;17.17;;;;;;;1.37;82.97;101276.50;1804333;78;21445;-72
2020/12/16 07:52:42;;;;;;;16.50;14.80;;;;;;;1.42;82.97;101286.78;1803989;78;21087;-73
2020/12/16 07:55:13;;;;;;;15.68;14.18;;;;;;;1.45;82.90;101291.91;1786521;78;21690;-69
2020/12/16 07:57:43;;;;;;;21.68;16.85;;;;;;;1.48;82.76;101290.21;1808093;78;21660;-71
2020/12/16 08:00:12;;;;;;;17.12;15.00;;;;;;;1.50;82.63;101281.23;1809989;78;21014;-73
2020/12/16 08:02:46;;;;;;;17.07;14.80;;;;;;;1.54;82.67;101289.36;1802436;78;22622;-74
2020/12/16 08:05:14;;;;;;;15.78;14.03;;;;;;;1.58;82.70;101288.52;1806082;78;21015;-71
2020/12/16 08:07:43;;;;;;;17.00;14.00;;;;;;;1.61;82.51;101291.05;1809143;78;21092;-71
2020/12/16 08:10:11;;;;;;;15.72;14.00;;;;;;;1.62;82.36;101282.50;1815505;77;20931;-69
2020/12/16 08:12:42;;;;;;;17.85;14.95;;;;;;;1.65;82.20;101288.92;1805608;78;20998;-70
2020/12/16 08:15:17;;;;;;;14.13;12.65;;;;;;;1.69;82.26;101282.93;1797235;78;21536;-67
2020/12/16 08:17:47;;;;;;;15.20;12.60;;;;;;;1.75;82.27;101282.08;1805519;78;21611;-66
2020/12/16 08:20:18;;;;;;;13.28;11.88;;;;;;;1.77;82.04;101294.49;1805280;77;20923;-68
2020/12/16 08:22:49;;;;;;;12.25;11.05;;;;;;;1.78;81.96;101289.36;1802720;78;21085;-68
2020/12/16 08:25:18;;;;;;;15.25;13.15;;;;;;;1.79;81.85;101291.50;1817930;78;21576;-67
2020/12/16 08:27:55;;;;;;;14.30;12.28;;;;;;;1.79;81.84;101290.22;1822301;78;22145;-68
2020/12/16 08:30:26;;;;;;;23.25;18.87;;;;;;;1.80;81.81;101289.36;1808434;78;21074;-67
2020/12/16 08:33:02;;;;;;;26.77;22.65;;;;;;;1.80;81.92;101291.50;1803202;78;21667;-72
2020/12/16 08:35:38;;;;;;;25.20;21.50;;;;;;;1.83;81.76;101290.64;1792965;78;21038;-70
2020/12/16 08:38:09;;;;;;;19.82;16.07;;;;;;;1.82;81.72;101289.78;1793519;78;21086;-72
2020/12/16 08:40:45;;;;;;;12.93;11.22;;;;;;;1.83;81.68;101285.08;1798394;78;21390;-72
2020/12/16 08:43:29;;;;;;;14.60;12.43;;;;;;;1.82;81.69;101290.22;1798561;78;21054;-71
2020/12/16 08:46:04;;;;;;;21.33;14.47;;;;;;;1.81;81.63;101289.78;1809653;77;21062;-69
2020/12/16 08:48:56;;;;;;;14.00;11.57;;;;;;;1.81;81.75;101291.07;1816189;78;21340;-68
2020/12/16 08:51:40;;;;;;;11.53;10.13;;;;;;;1.81;81.87;101284.22;1817131;78;21624;-67
2020/12/16 08:54:17;;;;;;;10.98;9.85;;;;;;;1.83;81.68;101294.06;1801363;78;21941;-68
2020/12/16 08:56:54;;;;;;;11.03;9.63;;;;;;;1.85;81.61;101287.64;1798969;78;21007;-68
2020/12/16 08:59:25;;;;;;;13.98;11.63;;;;;;;1.87;81.53;101288.08;1799440;78;23147;-68
2020/12/16 09:01:58;;;;;;;12.35;9.58;;;;;;;1.86;81.37;101286.36;1802441;78;20951;-67
2020/12/16 09:04:35;;;;;;;13.08;10.95;;;;;;;1.88;81.49;101282.52;1811503;78;21018;-68
2020/12/16 09:07:09;;;;;;;16.60;12.93;;;;;;;1.90;81.35;101279.52;1795085;78;21348;-67
2020/12/16 09:09:43;;;;;;;17.00;14.07;;;;;;;1.92;81.32;101277.37;1815609;77;24745;-66
2020/12/16 09:12:16;;;;;;;15.30;13.28;;;;;;;1.94;81.39;101282.52;1839911;77;20992;-70
2020/12/16 09:14:53;;;;;;;13.10;11.70;;;;;;;1.98;81.42;101286.80;1745771;81;21041;-68
2020/12/16 09:17:29;;;;;;;10.98;9.80;;;;;;;2.01;81.57;101290.19;1779860;78;21517;-68
2020/12/16 09:19:57;;;;;;;14.47;12.00;;;;;;;2.05;81.57;101282.47;1849883;76;21193;-67
2020/12/16 09:22:29;;;;;;;12.70;11.45;;;;;;;2.06;81.39;101282.47;1827714;77;21106;-67
2020/12/16 09:25:04;;;;;;;12.95;11.65;;;;;;;2.09;81.45;101280.33;1827437;77;21105;-69
2020/12/16 09:27:35;;;;;;;13.40;12.03;;;;;;;2.11;81.42;101279.90;1816553;77;21159;-67
2020/12/16 09:30:03;;;;;;;11.45;10.35;;;;;;;2.15;81.37;101275.19;1818502;76;21635;-71
2020/12/16 09:32:32;;;;;;;12.78;11.20;;;;;;;2.16;81.11;101270.47;1810517;77;21312;-69
2020/12/16 09:35:02;;;;;;;12.25;10.03;;;;;;;2.17;80.95;101263.19;1819932;76;21007;-71
2020/12/16 09:37:36;;;;;;;10.60;9.20;;;;;;;2.18;80.58;101253.34;1822777;76;21083;-72
2020/12/16 09:40:13;;;;;;;11.05;9.75;;;;;;;2.16;80.42;101256.34;1815423;76;21181;-70
2020/12/16 09:42:59;;;;;;;12.07;9.08;;;;;;;2.12;80.42;101249.06;1807585;77;21070;-68
2020/12/16 09:45:32;;;;;;;10.70;9.55;;;;;;;2.13;80.53;101258.48;1829111;77;21273;-70
2020/12/16 09:48:00;;;;;;;10.30;9.30;;;;;;;2.14;80.64;101251.63;1822681;77;21018;-70
2020/12/16 09:50:30;;;;;;;9.48;8.48;;;;;;;2.14;80.71;101247.78;1823188;77;21011;-70
2020/12/16 09:53:10;;;;;;;9.08;8.18;;;;;;;2.14;80.67;101240.92;1828617;77;21003;-71
2020/12/16 09:55:39;;;;;;;8.78;7.87;;;;;;;2.15;80.45;101245.63;1826924;77;21620;-72
2020/12/16 09:58:11;;;;;;;8.95;8.13;;;;;;;2.13;80.39;101245.64;1823292;77;21195;-70
2020/12/16 10:00:43;;;;;;;8.33;7.53;;;;;;;2.08;79.92;101238.80;1824425;77;21054;-73
2020/12/16 10:03:13;;;;;;;7.35;6.70;;;;;;;2.04;80.06;101229.38;1821338;77;20990;-70
2020/12/16 10:05:45;;;;;;;7.83;7.03;;;;;;;2.04;79.95;101222.96;1808497;77;21596;-72
2020/12/16 10:08:16;;;;;;;8.60;7.70;;;;;;;2.01;79.83;101222.53;1815818;76;21045;-71
2020/12/16 10:10:44;;;;;;;7.97;7.17;;;;;;;1.97;79.78;101222.14;1818277;76;21315;-72
2020/12/16 10:13:13;;;;;;;7.92;7.22;;;;;;;1.94;80.02;101223.00;1822468;77;21018;-72
2020/12/16 10:15:42;;;;;;;8.13;7.42;;;;;;;1.94;80.14;101225.58;1823561;78;20980;-70
2020/12/16 10:18:10;;;;;;;9.40;7.55;;;;;;;1.94;80.29;101221.72;1821187;78;21107;-73
2020/12/16 10:20:38;;;;;;;18.87;14.03;;;;;;;1.99;80.19;101220.43;1814012;77;21062;-71
2020/12/16 10:23:07;;;;;;;15.43;11.60;;;;;;;1.98;80.35;101220.86;1815753;77;21366;-71
2020/12/16 10:25:35;;;;;;;14.13;11.83;;;;;;;1.99;80.36;101223.86;1797971;78;20998;-73
2020/12/16 10:28:09;;;;;;;12.50;11.15;;;;;;;2.00;80.20;101224.25;1823228;78;21578;-71
2020/12/16 10:30:34;;;;;;;8.20;7.40;;;;;;;2.01;80.22;101228.53;1843556;77;21540;-71
2020/12/16 10:33:02;;;;;;;8.58;7.78;;;;;;;2.02;80.00;101219.11;1791015;79;21048;-69
2020/12/16 10:35:30;;;;;;;9.03;8.10;;;;;;;2.02;79.93;101220.39;1817602;78;22150;-67
2020/12/16 10:38:00;;;;;;;8.93;8.03;;;;;;;2.01;79.94;101225.96;1780527;79;20998;-69
2020/12/16 10:40:31;;;;;;;8.58;7.70;;;;;;;2.01;79.98;101225.11;1826939;76;20960;-71
2020/12/16 10:42:59;;;;;;;9.88;8.50;;;;;;;1.99;80.11;101218.72;1818106;78;21124;-70
2020/12/16 10:45:28;;;;;;;11.60;10.40;;;;;;;2.00;80.08;101221.68;1814655;78;21059;-69
2020/12/16 10:47:59;;;;;;;16.40;10.85;;;;;;;2.00;80.17;101220.40;1780728;80;22288;-69
2020/12/16 10:50:30;;;;;;;11.03;9.83;;;;;;;2.01;80.13;101222.53;1823354;76;21513;-72
2020/12/16 10:53:01;;;;;;;11.22;9.53;;;;;;;2.01;80.10;101213.12;1810222;78;20935;-67
2020/12/16 10:55:30;;;;;;;10.95;9.15;;;;;;;2.00;80.13;101210.55;1813544;78;21035;-71
2020/12/16 10:57:58;;;;;;;9.60;8.70;;;;;;;1.99;80.25;101207.59;1789574;78;21000;-68
2020/12/16 11:00:26;;;;;;;9.20;8.00;;;;;;;1.99;80.33;101199.87;1822555;78;21196;-69
2020/12/16 11:02:55;;;;;;;10.25;8.95;;;;;;;2.00;80.35;101209.27;1826844;78;21021;-70
2020/12/16 11:05:23;;;;;;;10.30;9.20;;;;;;;2.00;80.48;101210.55;1819235;78;21007;-69
2020/12/16 11:07:52;;;;;;;11.78;10.58;;;;;;;1.99;80.56;101209.73;1829559;78;21086;-68
2020/12/16 11:10:20;;;;;;;8.95;8.10;;;;;;;1.97;80.52;101203.73;1831679;77;21274;-69
2020/12/16 11:12:48;;;;;;;13.03;9.55;;;;;;;1.96;80.35;101196.03;1816674;76;21454;-69
2020/12/16 11:15:17;;;;;;;14.40;11.33;;;;;;;1.93;80.19;101199.46;1774917;80;21014;-70
2020/12/16 11:17:45;;;;;;;9.53;8.53;;;;;;;1.91;79.99;101195.19;1823761;77;21054;-69
2020/12/16 11:20:13;;;;;;;9.30;8.40;;;;;;;1.89;79.90;101201.61;1819049;77;21003;-70
2020/12/16 11:22:42;;;;;;;9.18;8.28;;;;;;;1.86;79.94;101195.62;1830342;77;20999;-69
2020/12/16 11:25:10;;;;;;;10.85;8.93;;;;;;;1.84;80.04;101195.63;1826801;76;21179;-70
2020/12/16 11:27:38;;;;;;;11.08;9.40;;;;;;;1.83;80.01;101193.91;1827698;77;21152;-70
2020/12/16 11:30:07;;;;;;;11.63;9.68;;;;;;;1.82;79.89;101187.49;1824587;77;21922;-69
2020/12/16 11:32:35;;;;;;;8.73;7.83;;;;;;;1.78;80.09;101187.92;1818511;77;20953;-69
2020/12/16 11:35:05;;;;;;;10.18;8.40;;;;;;;1.75;80.40;101180.66;1831577;76;21035;-69
2020/12/16 11:37:34;;;;;;;9.10;8.20;;;;;;;1.74;80.51;101179.80;1818683;77;21264;-68
2020/12/16 11:40:03;;;;;;;9.15;8.25;;;;;;;1.74;80.64;101174.66;1821833;77;21165;-70